Time;durP1;ratioP1;P1;durP2;ratioP2;P2;SDS_P1;SDS_P2;PMS_P1;PMS_P2;Temp;Humidity;BMP_temperature;BMP_pressure;BME280_temperature;BME280_humidity;BME280_pressure;Samples;Min_cycle;Max_cycle;Signal;HPM_P1;HPM_P2
2023/12/02 00:07:21;;;;;;;75.63;53.28;;;;;;;22.60;47.67;99782.75;21065738;28;20278;-49
2023/12/02 00:17:24;;;;;;;74.72;52.40;;;;;;;22.55;47.99;99780.25;21104679;28;20524;-36
2023/12/02 00:27:26;;;;;;;67.25;47.85;;;;;;;22.55;48.00;99782.25;21088911;28;20206;-49
2023/12/02 00:37:29;;;;;;;64.53;44.08;;;;;;;22.54;47.79;99778.59;21099424;28;20223;-35
2023/12/02 00:47:31;;;;;;;55.42;40.22;;;;;;;22.48;48.24;99782.94;21122241;28;20225;-34
2023/12/02 00:57:34;;;;;;;55.33;40.30;;;;;;;22.48;48.27;99794.28;21092178;28;20230;-35
2023/12/02 01:07:37;;;;;;;50.15;37.22;;;;;;;22.48;48.32;99796.28;21105598;28;20209;-37
2023/12/02 01:17:40;;;;;;;48.42;35.15;;;;;;;22.47;48.46;99795.47;21102191;28;20218;-35
2023/12/02 01:27:41;;;;;;;44.55;33.35;;;;;;;22.44;48.84;99796.25;21100719;28;20202;-48
2023/12/02 01:37:44;;;;;;;43.63;31.52;;;;;;;22.41;48.98;99802.66;21104407;28;20222;-35
2023/12/02 01:47:47;;;;;;;40.95;29.85;;;;;;;22.43;48.75;99818.09;21084367;28;20214;-35
2023/12/02 01:57:50;;;;;;;40.40;29.00;;;;;;;22.43;48.69;99820.13;21066263;28;20321;-37
2023/12/02 02:07:51;;;;;;;36.50;27.33;;;;;;;22.40;48.60;99829.34;21000263;28;20499;-44
2023/12/02 02:17:54;;;;;;;33.50;25.52;;;;;;;22.43;48.60;99828.63;21003861;28;20226;-34
2023/12/02 02:27:57;;;;;;;30.73;23.08;;;;;;;22.43;48.54;99834.28;21000244;28;20495;-35
2023/12/02 02:37:59;;;;;;;28.52;22.08;;;;;;;22.41;48.98;99845.19;20955337;28;20219;-34
2023/12/02 02:48:07;;;;;;;27.30;21.20;;;;;;;22.48;48.49;99838.81;20973436;28;20221;-50
2023/12/02 02:58:09;;;;;;;26.92;20.65;;;;;;;22.40;48.59;99841.53;21069245;28;20222;-47
2023/12/02 03:08:12;;;;;;;26.80;19.75;;;;;;;22.42;48.50;99844.00;21067781;28;20499;-36
2023/12/02 03:18:13;;;;;;;22.15;18.45;;;;;;;22.40;48.65;99850.03;21071804;28;20231;-35
2023/12/02 03:28:16;;;;;;;23.02;18.08;;;;;;;22.42;48.17;99846.81;21028662;28;20190;-35
2023/12/02 03:38:18;;;;;;;21.83;16.77;;;;;;;22.42;48.68;99849.66;21076332;28;20240;-46
2023/12/02 03:48:21;;;;;;;23.38;17.08;;;;;;;22.42;48.23;99867.50;21080676;28;20215;-45
2023/12/02 03:58:23;;;;;;;18.65;15.10;;;;;;;22.39;48.27;99861.75;21080221;28;20218;-35
2023/12/02 04:08:26;;;;;;;18.42;13.55;;;;;;;22.39;48.33;99867.41;21071948;28;20209;-35
2023/12/02 04:18:27;;;;;;;16.50;12.98;;;;;;;22.38;48.42;99879.94;21083921;28;20613;-47
2023/12/02 04:28:31;;;;;;;15.95;12.35;;;;;;;22.29;48.88;99885.03;21075866;28;20199;-34
2023/12/02 04:38:32;;;;;;;14.63;11.70;;;;;;;22.26;48.38;99897.09;21075841;28;20245;-47
2023/12/02 04:48:35;;;;;;;14.55;11.27;;;;;;;22.25;48.65;99912.47;21033447;28;20230;-34
2023/12/02 04:58:37;;;;;;;12.93;10.30;;;;;;;22.28;48.31;99914.56;21077368;28;20491;-39
2023/12/02 05:08:40;;;;;;;15.52;11.20;;;;;;;22.38;48.28;99922.47;21072537;28;20202;-47
2023/12/02 05:18:42;;;;;;;341.67;250.38;;;;;;;22.52;48.61;99948.31;21077440;28;20249;-36
2023/12/02 05:28:45;;;;;;;80.05;55.53;;;;;;;22.69;47.09;99945.03;21087531;28;20206;-35
2023/12/02 05:38:47;;;;;;;195.85;133.25;;;;;;;22.94;48.18;99958.94;20884074;28;20226;-48
2023/12/02 05:48:49;;;;;;;172.18;118.00;;;;;;;22.89;47.05;99959.22;21072944;28;20222;-48
2023/12/02 05:58:51;;;;;;;119.82;84.55;;;;;;;22.91;46.83;99973.88;21073279;28;20794;-36
2023/12/02 06:08:55;;;;;;;130.95;89.88;;;;;;;22.95;47.49;99981.28;21058454;28;20594;-47
2023/12/02 06:18:58;;;;;;;114.43;76.93;;;;;;;22.93;46.90;99978.00;21043558;28;20219;-45
2023/12/02 06:29:01;;;;;;;208.90;135.63;;;;;;;22.94;46.79;99984.47;21041921;28;20566;-35
2023/12/02 06:39:04;;;;;;;228.98;150.80;;;;;;;23.01;46.59;99981.78;21055345;28;20223;-46
2023/12/02 06:49:07;;;;;;;206.90;138.80;;;;;;;22.97;46.52;99995.91;21047269;28;20283;-35
2023/12/02 06:59:08;;;;;;;329.50;241.75;;;;;;;23.11;46.59;100010.38;21047123;28;20244;-35
2023/12/02 07:09:12;;;;;;;293.17;210.90;;;;;;;23.08;47.12;100030.19;21039724;28;20198;-49
2023/12/02 07:19:14;;;;;;;395.80;295.85;;;;;;;23.11;47.65;100043.63;21051270;28;20214;-45
2023/12/02 07:29:18;;;;;;;471.58;365.30;;;;;;;23.03;47.38;100050.34;21041824;28;20291;-36
2023/12/02 07:39:19;;;;;;;453.35;347.02;;;;;;;22.98;47.39;100059.19;21047615;28;20622;-36
2023/12/02 07:49:23;;;;;;;413.70;312.80;;;;;;;22.97;46.86;100068.88;21049480;28;20650;-35
2023/12/02 07:59:24;;;;;;;376.30;273.65;;;;;;;22.93;47.64;100065.13;20983664;28;20653;-36
2023/12/02 08:09:28;;;;;;;331.10;240.43;;;;;;;22.92;46.24;100078.50;20998236;28;20248;-45
2023/12/02 08:19:29;;;;;;;298.25;210.20;;;;;;;22.72;47.63;100096.66;20984631;28;20257;-37
2023/12/02 08:29:33;;;;;;;251.23;174.63;;;;;;;22.60;46.50;100106.09;20986044;28;20241;-39
2023/12/02 08:39:37;;;;;;;226.48;156.38;;;;;;;22.60;46.73;100122.28;20982187;28;20230;-44
2023/12/02 08:49:40;;;;;;;207.40;141.73;;;;;;;22.75;47.04;100142.13;20997468;28;20230;-45
2023/12/02 08:59:44;;;;;;;196.32;134.77;;;;;;;22.76;46.89;100143.81;21073201;28;20223;-44
2023/12/02 09:09:47;;;;;;;173.32;119.88;;;;;;;22.79;47.16;100140.22;21061987;28;20201;-44
2023/12/02 09:19:55;;;;;;;119.60;85.47;;;;;;;22.46;44.67;100154.78;21059274;28;20233;-41
2023/12/02 09:29:59;;;;;;;117.50;81.18;;;;;;;22.57;44.58;100169.25;21065815;28;20277;-46
2023/12/02 09:40:30;;;;;;;116.05;79.80;;;;;;;22.62;44.74;100171.78;21064675;28;20229;-45
2023/12/02 09:50:35;;;;;;;185.30;126.65;;;;;;;22.69;45.37;100166.31;21046642;28;20305;-37
2023/12/02 10:00:42;;;;;;;188.88;131.50;;;;;;;22.72;45.62;100167.59;20979628;28;20637;-38
2023/12/02 10:10:52;;;;;;;186.32;125.53;;;;;;;22.75;46.15;100167.66;20969017;28;20203;-44
2023/12/02 10:20:58;;;;;;;179.15;119.78;;;;;;;22.96;46.92;100166.56;20964758;28;20226;-47
2023/12/02 10:31:05;;;;;;;189.15;129.57;;;;;;;22.78;46.02;100169.78;20974122;28;20249;-50
2023/12/02 10:41:14;;;;;;;158.35;108.57;;;;;;;22.61;45.25;100172.16;20982039;28;20310;-47
2023/12/02 10:51:17;;;;;;;123.70;84.40;;;;;;;22.52;43.71;100160.19;21004020;28;20238;-47
2023/12/02 11:01:24;;;;;;;89.25;61.05;;;;;;;22.42;42.65;100162.38;21061658;28;20222;-46
2023/12/02 11:11:40;;;;;;;75.13;52.55;;;;;;;22.31;42.04;100160.47;21046266;28;20214;-37
2023/12/02 11:21:51;;;;;;;58.65;40.10;;;;;;;22.24;40.89;100168.78;21043462;28;20220;-52
2023/12/02 11:32:21;;;;;;;51.25;36.08;;;;;;;22.25;40.51;100176.91;21053223;28;20205;-47
2023/12/02 11:42:25;;;;;;;48.10;34.10;;;;;;;22.27;40.52;100179.38;21070842;28;20226;-46
2023/12/02 11:52:45;;;;;;;27.90;18.88;;;;;;;22.07;36.59;100176.44;21066205;28;20233;-37
2023/12/02 12:03:05;;;;;;;29.58;21.75;;;;;;;21.91;37.99;100175.56;21057486;28;20625;-44
2023/12/02 12:13:09;;;;;;;48.65;26.52;;;;;;;22.34;40.06;100171.88;21052968;28;20560;-42
2023/12/02 12:23:12;;;;;;;38.25;26.63;;;;;;;22.19;38.77;100166.22;21055042;28;20215;-51
2023/12/02 12:33:17;;;;;;;37.92;26.60;;;;;;;21.96;41.74;100183.78;21052851;28;20243;-52
2023/12/02 12:43:19;;;;;;;43.05;27.02;;;;;;;21.98;41.61;100187.06;21049906;28;20222;-50
2023/12/02 12:53:28;;;;;;;35.38;24.80;;;;;;;22.00;42.94;100200.91;21062218;28;20232;-39
2023/12/02 13:03:46;;;;;;;34.47;23.33;;;;;;;22.07;43.55;100212.47;21061464;28;20305;-38
2023/12/02 13:13:53;;;;;;;36.97;21.40;;;;;;;21.84;43.66;100220.69;21061811;28;20198;-53
2023/12/02 13:23:57;;;;;;;32.15;23.27;;;;;;;21.58;42.01;100237.28;21049502;28;20195;-40
2023/12/02 13:34:03;;;;;;;20.40;16.38;;;;;;;20.59;36.48;100249.03;21052968;28;20205;-39
2023/12/02 13:44:05;;;;;;;26.38;18.50;;;;;;;21.42;41.58;100261.91;21057369;28;20219;-37
2023/12/02 13:54:18;;;;;;;22.95;16.40;;;;;;;21.56;42.22;100276.47;21043264;28;20534;-48
2023/12/02 14:04:30;;;;;;;21.30;15.15;;;;;;;21.65;42.35;100282.84;21055446;28;20213;-39
2023/12/02 14:14:47;;;;;;;20.77;15.20;;;;;;;21.83;43.38;100284.19;21043811;28;20544;-39
2023/12/02 14:25:09;;;;;;;19.42;13.63;;;;;;;21.95;43.45;100289.81;21061840;28;20208;-55
2023/12/02 14:35:31;;;;;;;17.55;13.25;;;;;;;21.93;43.10;100308.38;21046097;28;20260;-38
2023/12/02 14:45:33;;;;;;;23.98;18.35;;;;;;;21.25;38.41;100306.25;21054951;28;20245;-38
2023/12/02 14:55:36;;;;;;;34.65;27.08;;;;;;;21.97;40.91;100320.63;21064771;28;20284;-39
2023/12/02 15:05:39;;;;;;;80.97;69.57;;;;;;;21.98;41.77;100345.78;21057230;28;20198;-38
2023/12/02 15:15:46;;;;;;;76.25;67.85;;;;;;;22.03;42.20;100348.41;21060880;28;20222;-39
2023/12/02 15:25:49;;;;;;;96.43;86.47;;;;;;;22.06;42.29;100376.03;21058135;28;20198;-41
2023/12/02 15:35:52;;;;;;;83.25;73.68;;;;;;;21.87;38.99;100394.78;21050807;28;20233;-39
2023/12/02 15:45:53;;;;;;;88.15;79.13;;;;;;;22.03;41.88;100399.41;21058152;28;20625;-38
2023/12/02 15:55:57;;;;;;;87.05;78.65;;;;;;;22.14;41.86;100419.56;21051423;28;20230;-40
2023/12/02 16:06:01;;;;;;;96.35;87.28;;;;;;;22.26;42.13;100435.72;21048929;28;20198;-39
2023/12/02 16:16:08;;;;;;;82.82;75.07;;;;;;;22.29;42.84;100441.50;21051666;28;20633;-39
2023/12/02 16:26:12;;;;;;;84.40;76.75;;;;;;;22.33;43.09;100455.81;21070047;28;20241;-38
2023/12/02 16:36:16;;;;;;;78.32;71.13;;;;;;;22.40;43.86;100475.84;21058102;28;20215;-40
2023/12/02 16:46:18;;;;;;;78.65;71.45;;;;;;;22.50;43.97;100485.88;21062530;28;20210;-38
2023/12/02 16:56:29;;;;;;;77.47;70.55;;;;;;;22.52;44.05;100487.16;21048282;28;20235;-41
2023/12/02 17:06:31;;;;;;;79.78;72.60;;;;;;;22.57;44.58;100506.78;21064479;28;20544;-38
2023/12/02 17:16:57;;;;;;;88.35;80.90;;;;;;;22.62;44.75;100512.19;21058563;28;20227;-38
2023/12/02 17:26:59;;;;;;;82.57;75.38;;;;;;;22.68;44.17;100527.78;21049356;28;20192;-38
2023/12/02 17:37:03;;;;;;;86.18;78.82;;;;;;;22.62;44.66;100534.88;21065074;28;20222;-45
2023/12/02 17:47:05;;;;;;;77.30;70.50;;;;;;;22.64;44.82;100538.19;21066038;28;20242;-39
2023/12/02 17:57:08;;;;;;;79.20;72.00;;;;;;;22.81;45.21;100551.31;21056278;28;20644;-39
2023/12/02 18:07:10;;;;;;;70.75;63.95;;;;;;;22.31;36.76;100551.72;21048008;28;20207;-39
2023/12/02 18:17:14;;;;;;;81.63;73.72;;;;;;;22.08;46.01;100559.88;21070650;28;20237;-38
2023/12/02 18:27:17;;;;;;;128.82;115.95;;;;;;;22.77;47.97;100565.38;21047252;28;20235;-39
2023/12/02 18:37:21;;;;;;;107.35;96.75;;;;;;;22.75;47.81;100572.56;21046728;28;20630;-39
2023/12/02 18:47:31;;;;;;;94.05;84.65;;;;;;;22.75;47.52;100572.56;21059313;28;20207;-39
2023/12/02 18:57:35;;;;;;;94.40;84.22;;;;;;;22.77;47.69;100575.91;21063259;28;20229;-39
2023/12/02 19:07:37;;;;;;;142.57;116.32;;;;;;;22.65;47.38;100579.56;21048232;28;20206;-46
2023/12/02 19:17:41;;;;;;;131.77;109.75;;;;;;;22.67;46.72;100577.19;21040178;28;20226;-46
2023/12/02 19:27:42;;;;;;;125.65;100.88;;;;;;;22.62;46.26;100585.94;21042920;28;20213;-48
2023/12/02 19:37:47;;;;;;;109.65;87.32;;;;;;;22.64;46.25;100589.25;21043062;28;20272;-52
2023/12/02 19:47:49;;;;;;;97.60;82.22;;;;;;;22.62;46.21;100594.44;21039931;28;20248;-49
2023/12/02 19:57:53;;;;;;;89.53;71.75;;;;;;;22.56;46.21;100598.72;21053994;28;20237;-38
2023/12/02 20:07:55;;;;;;;75.60;60.55;;;;;;;22.54;45.56;100605.94;21064072;28;20199;-51
2023/12/02 20:17:59;;;;;;;69.75;55.30;;;;;;;22.49;46.25;100621.19;21079976;28;20657;-38
2023/12/02 20:28:00;;;;;;;62.13;49.58;;;;;;;22.49;45.86;100632.53;21074355;28;20214;-50
2023/12/02 20:38:03;;;;;;;56.20;45.40;;;;;;;22.52;45.35;100643.16;21082659;28;20617;-47
2023/12/02 20:48:05;;;;;;;52.63;43.25;;;;;;;22.51;45.47;100647.19;21077922;28;20223;-46
2023/12/02 20:58:10;;;;;;;44.58;35.28;;;;;;;22.45;45.54;100646.59;20974862;28;20233;-39
2023/12/02 21:08:12;;;;;;;37.08;31.70;;;;;;;22.44;45.55;100641.28;20960535;28;20563;-48
2023/12/02 21:18:15;;;;;;;36.63;29.88;;;;;;;22.43;45.68;100633.97;20949041;28;20514;-48
2023/12/02 21:28:17;;;;;;;33.08;27.00;;;;;;;22.39;45.52;100644.34;20983139;28;20202;-38
2023/12/02 21:38:28;;;;;;;29.40;24.60;;;;;;;22.42;45.08;100643.66;20968952;28;20230;-51
2023/12/02 21:48:39;;;;;;;27.13;21.77;;;;;;;22.39;45.41;100636.66;20974829;28;20652;-39
2023/12/02 21:58:42;;;;;;;27.45;21.25;;;;;;;22.44;45.13;100646.97;20994412;28;20222;-39
2023/12/02 22:08:44;;;;;;;23.73;18.70;;;;;;;22.66;44.88;100652.13;20985593;28;20203;-39
2023/12/02 22:18:47;;;;;;;21.75;17.00;;;;;;;22.63;44.84;100644.34;20986495;28;20223;-37
2023/12/02 22:28:48;;;;;;;21.42;15.90;;;;;;;22.65;44.58;100670.34;21006485;28;20635;-38
2023/12/02 22:38:53;;;;;;;19.27;14.75;;;;;;;22.71;44.42;100674.59;20972076;28;20219;-38
2023/12/02 22:48:55;;;;;;;14.23;12.13;;;;;;;22.64;44.55;100691.38;20981002;28;20226;-38
2023/12/02 22:58:58;;;;;;;14.82;12.40;;;;;;;22.65;44.78;100689.38;21056158;28;20253;-40
2023/12/02 23:09:05;;;;;;;13.35;10.90;;;;;;;22.64;44.60;100687.72;21057900;28;20214;-41
2023/12/02 23:19:25;;;;;;;12.98;10.45;;;;;;;22.62;44.48;100719.28;21059729;28;20756;-41
2023/12/02 23:29:26;;;;;;;15.70;9.88;;;;;;;22.59;44.40;100724.84;21081703;28;20578;-39
2023/12/02 23:39:30;;;;;;;11.60;9.70;;;;;;;22.53;44.39;100707.22;21085486;28;20235;-39
2023/12/02 23:49:31;;;;;;;10.00;8.07;;;;;;;22.48;44.88;100721.63;21090029;28;20228;-38
2023/12/02 23:59:35;;;;;;;11.10;8.40;;;;;;;22.42;44.99;100717.38;21080951;28;20228;-39
